sensor_id;sensor_type;location;lat;lon;timestamp;temperature;humidity
41928;DHT22;27616;51.420;6.788;2022-12-26T00:02:08;10.50;99.90
41928;DHT22;27616;51.420;6.788;2022-12-26T00:04:34;10.50;99.90
41928;DHT22;27616;51.420;6.788;2022-12-26T00:06:59;10.50;99.90
41928;DHT22;27616;51.420;6.788;2022-12-26T00:09:25;10.50;99.90
41928;DHT22;27616;51.420;6.788;2022-12-26T00:11:51;10.50;99.90
41928;DHT22;27616;51.420;6.788;2022-12-26T00:14:16;10.50;99.90
41928;DHT22;27616;51.420;6.788;2022-12-26T00:16:43;10.50;99.90
41928;DHT22;27616;51.420;6.788;2022-12-26T00:19:09;10.50;99.90
41928;DHT22;27616;51.420;6.788;2022-12-26T00:21:35;10.50;99.90
41928;DHT22;27616;51.420;6.788;2022-12-26T00:24:00;10.50;99.90
41928;DHT22;27616;51.420;6.788;2022-12-26T00:26:30;10.40;99.90
41928;DHT22;27616;51.420;6.788;2022-12-26T00:28:56;10.50;99.90
41928;DHT22;27616;51.420;6.788;2022-12-26T00:31:23;10.50;99.90
41928;DHT22;27616;51.420;6.788;2022-12-26T00:33:49;10.50;99.90
41928;DHT22;27616;51.420;6.788;2022-12-26T00:36:16;10.40;99.90
41928;DHT22;27616;51.420;6.788;2022-12-26T00:38:42;10.40;99.90
41928;DHT22;27616;51.420;6.788;2022-12-26T00:41:08;10.40;99.90
41928;DHT22;27616;51.420;6.788;2022-12-26T00:43:34;10.40;99.90
41928;DHT22;27616;51.420;6.788;2022-12-26T00:46:00;10.30;99.90
41928;DHT22;27616;51.420;6.788;2022-12-26T00:48:25;10.40;99.90
41928;DHT22;27616;51.420;6.788;2022-12-26T00:50:52;10.30;99.90
41928;DHT22;27616;51.420;6.788;2022-12-26T00:53:18;10.30;99.90
41928;DHT22;27616;51.420;6.788;2022-12-26T00:55:44;10.30;99.90
41928;DHT22;27616;51.420;6.788;2022-12-26T00:58:09;10.30;99.90
41928;DHT22;27616;51.420;6.788;2022-12-26T01:00:35;10.40;99.90
41928;DHT22;27616;51.420;6.788;2022-12-26T01:03:01;10.30;99.90
41928;DHT22;27616;51.420;6.788;2022-12-26T01:05:26;10.40;99.90
41928;DHT22;27616;51.420;6.788;2022-12-26T01:07:52;10.30;99.90
41928;DHT22;27616;51.420;6.788;2022-12-26T01:10:18;10.40;99.90
41928;DHT22;27616;51.420;6.788;2022-12-26T01:12:43;10.40;99.90
41928;DHT22;27616;51.420;6.788;2022-12-26T01:15:09;10.40;99.90
41928;DHT22;27616;51.420;6.788;2022-12-26T01:17:35;10.40;99.90
41928;DHT22;27616;51.420;6.788;2022-12-26T01:20:01;10.40;99.90
41928;DHT22;27616;51.420;6.788;2022-12-26T01:22:26;10.40;99.90
41928;DHT22;27616;51.420;6.788;2022-12-26T01:24:52;10.40;99.90
41928;DHT22;27616;51.420;6.788;2022-12-26T01:27:19;10.40;99.90
41928;DHT22;27616;51.420;6.788;2022-12-26T01:29:44;10.40;99.90
41928;DHT22;27616;51.420;6.788;2022-12-26T01:32:10;10.40;99.90
41928;DHT22;27616;51.420;6.788;2022-12-26T01:34:35;10.40;99.90
41928;DHT22;27616;51.420;6.788;2022-12-26T01:37:01;10.40;99.90
41928;DHT22;27616;51.420;6.788;2022-12-26T01:39:27;10.40;99.90
41928;DHT22;27616;51.420;6.788;2022-12-26T01:41:53;10.40;99.90
41928;DHT22;27616;51.420;6.788;2022-12-26T01:47:03;10.30;99.90
41928;DHT22;27616;51.420;6.788;2022-12-26T01:49:33;10.30;99.90
41928;DHT22;27616;51.420;6.788;2022-12-26T01:52:05;10.30;99.90
41928;DHT22;27616;51.420;6.788;2022-12-26T01:54:32;10.30;99.90
41928;DHT22;27616;51.420;6.788;2022-12-26T01:56:59;10.30;99.90
41928;DHT22;27616;51.420;6.788;2022-12-26T01:59:25;10.30;99.90
41928;DHT22;27616;51.420;6.788;2022-12-26T02:01:52;10.30;99.90
41928;DHT22;27616;51.420;6.788;2022-12-26T02:04:23;10.30;99.90
41928;DHT22;27616;51.420;6.788;2022-12-26T02:07:08;10.30;99.90
41928;DHT22;27616;51.420;6.788;2022-12-26T02:09:34;10.20;99.90
41928;DHT22;27616;51.420;6.788;2022-12-26T02:14:25;10.20;99.90
41928;DHT22;27616;51.420;6.788;2022-12-26T02:16:51;10.20;99.90
41928;DHT22;27616;51.420;6.788;2022-12-26T02:29:53;10.20;99.90
41928;DHT22;27616;51.420;6.788;2022-12-26T02:35:09;10.30;99.90
41928;DHT22;27616;51.420;6.788;2022-12-26T02:48:48;10.30;99.90
41928;DHT22;27616;51.420;6.788;2022-12-26T02:57:05;10.30;99.90
41928;DHT22;27616;51.420;6.788;2022-12-26T02:59:53;10.30;99.90
41928;DHT22;27616;51.420;6.788;2022-12-26T03:05:59;10.30;99.90
41928;DHT22;27616;51.420;6.788;2022-12-26T03:08:47;10.40;99.90
41928;DHT22;27616;51.420;6.788;2022-12-26T03:11:37;10.30;99.90
41928;DHT22;27616;51.420;6.788;2022-12-26T03:14:25;10.30;99.90
41928;DHT22;27616;51.420;6.788;2022-12-26T03:16:54;10.30;99.90
41928;DHT22;27616;51.420;6.788;2022-12-26T03:19:40;10.30;99.90
41928;DHT22;27616;51.420;6.788;2022-12-26T03:22:27;10.20;99.90
41928;DHT22;27616;51.420;6.788;2022-12-26T03:25:00;10.20;99.90
41928;DHT22;27616;51.420;6.788;2022-12-26T03:27:46;10.20;99.90
41928;DHT22;27616;51.420;6.788;2022-12-26T03:30:11;10.20;99.90
41928;DHT22;27616;51.420;6.788;2022-12-26T03:32:56;10.20;99.90
41928;DHT22;27616;51.420;6.788;2022-12-26T03:35:23;10.20;99.90
41928;DHT22;27616;51.420;6.788;2022-12-26T03:46:11;10.20;99.90
41928;DHT22;27616;51.420;6.788;2022-12-26T03:54:49;10.10;99.90
41928;DHT22;27616;51.420;6.788;2022-12-26T03:57:42;10.10;99.90
41928;DHT22;27616;51.420;6.788;2022-12-26T04:00:27;10.10;99.90
41928;DHT22;27616;51.420;6.788;2022-12-26T04:03:12;10.00;99.90
41928;DHT22;27616;51.420;6.788;2022-12-26T04:05:58;10.00;99.90
41928;DHT22;27616;51.420;6.788;2022-12-26T04:08:57;10.00;99.90
41928;DHT22;27616;51.420;6.788;2022-12-26T04:11:42;9.90;99.90
41928;DHT22;27616;51.420;6.788;2022-12-26T04:14:33;9.90;99.90
41928;DHT22;27616;51.420;6.788;2022-12-26T04:17:22;9.90;99.90
41928;DHT22;27616;51.420;6.788;2022-12-26T04:22:53;9.80;99.90
41928;DHT22;27616;51.420;6.788;2022-12-26T04:25:42;9.90;99.90
41928;DHT22;27616;51.420;6.788;2022-12-26T04:28:27;9.80;99.90
41928;DHT22;27616;51.420;6.788;2022-12-26T04:31:22;9.80;99.90
41928;DHT22;27616;51.420;6.788;2022-12-26T04:34:10;9.90;99.90
41928;DHT22;27616;51.420;6.788;2022-12-26T04:36:57;9.80;99.90
41928;DHT22;27616;51.420;6.788;2022-12-26T04:39:44;9.80;99.90
41928;DHT22;27616;51.420;6.788;2022-12-26T04:42:30;9.80;99.90
41928;DHT22;27616;51.420;6.788;2022-12-26T04:45:15;9.80;99.90
41928;DHT22;27616;51.420;6.788;2022-12-26T04:47:42;9.70;99.90
41928;DHT22;27616;51.420;6.788;2022-12-26T04:50:28;9.70;99.90
41928;DHT22;27616;51.420;6.788;2022-12-26T04:52:53;9.70;99.90
41928;DHT22;27616;51.420;6.788;2022-12-26T04:55:26;9.70;99.90
41928;DHT22;27616;51.420;6.788;2022-12-26T04:57:52;9.70;99.90
41928;DHT22;27616;51.420;6.788;2022-12-26T05:00:18;9.80;99.90
41928;DHT22;27616;51.420;6.788;2022-12-26T05:02:44;9.80;99.90
41928;DHT22;27616;51.420;6.788;2022-12-26T05:05:30;9.70;99.90
41928;DHT22;27616;51.420;6.788;2022-12-26T05:08:21;9.70;99.90
41928;DHT22;27616;51.420;6.788;2022-12-26T05:11:07;9.60;99.90
41928;DHT22;27616;51.420;6.788;2022-12-26T05:13:33;9.60;99.90
41928;DHT22;27616;51.420;6.788;2022-12-26T05:15:58;9.60;99.90
41928;DHT22;27616;51.420;6.788;2022-12-26T05:18:42;9.60;99.90
41928;DHT22;27616;51.420;6.788;2022-12-26T05:21:26;9.60;99.90
41928;DHT22;27616;51.420;6.788;2022-12-26T05:24:11;9.60;99.90
41928;DHT22;27616;51.420;6.788;2022-12-26T05:26:55;9.70;99.90
41928;DHT22;27616;51.420;6.788;2022-12-26T05:29:39;9.60;99.90
41928;DHT22;27616;51.420;6.788;2022-12-26T05:32:05;9.70;99.90
41928;DHT22;27616;51.420;6.788;2022-12-26T05:34:31;9.70;99.90
41928;DHT22;27616;51.420;6.788;2022-12-26T05:36:57;9.80;99.90
41928;DHT22;27616;51.420;6.788;2022-12-26T05:39:23;9.90;99.90
41928;DHT22;27616;51.420;6.788;2022-12-26T05:41:48;9.80;99.90
41928;DHT22;27616;51.420;6.788;2022-12-26T05:44:14;9.80;99.90
41928;DHT22;27616;51.420;6.788;2022-12-26T05:46:40;9.80;99.90
41928;DHT22;27616;51.420;6.788;2022-12-26T05:49:07;9.80;99.90
41928;DHT22;27616;51.420;6.788;2022-12-26T05:51:33;9.80;99.90
41928;DHT22;27616;51.420;6.788;2022-12-26T05:53:58;9.80;99.90
41928;DHT22;27616;51.420;6.788;2022-12-26T05:56:24;9.80;99.90
41928;DHT22;27616;51.420;6.788;2022-12-26T05:58:57;9.80;99.90
41928;DHT22;27616;51.420;6.788;2022-12-26T06:01:23;9.80;99.90
41928;DHT22;27616;51.420;6.788;2022-12-26T06:03:49;9.70;99.90
41928;DHT22;27616;51.420;6.788;2022-12-26T06:06:16;9.70;99.90
41928;DHT22;27616;51.420;6.788;2022-12-26T06:08:41;9.70;99.90
41928;DHT22;27616;51.420;6.788;2022-12-26T06:11:11;9.80;99.90
41928;DHT22;27616;51.420;6.788;2022-12-26T06:13:37;9.70;99.90
41928;DHT22;27616;51.420;6.788;2022-12-26T06:16:06;9.80;99.90
41928;DHT22;27616;51.420;6.788;2022-12-26T06:18:32;9.80;99.90
41928;DHT22;27616;51.420;6.788;2022-12-26T06:20:58;9.80;99.90
41928;DHT22;27616;51.420;6.788;2022-12-26T06:23:27;9.90;99.90
41928;DHT22;27616;51.420;6.788;2022-12-26T06:25:56;9.80;99.90
41928;DHT22;27616;51.420;6.788;2022-12-26T06:28:22;9.80;99.90
41928;DHT22;27616;51.420;6.788;2022-12-26T06:30:48;9.90;99.90
41928;DHT22;27616;51.420;6.788;2022-12-26T06:33:13;9.90;99.90
41928;DHT22;27616;51.420;6.788;2022-12-26T06:35:39;9.80;99.90
41928;DHT22;27616;51.420;6.788;2022-12-26T06:38:05;9.80;99.90
41928;DHT22;27616;51.420;6.788;2022-12-26T06:40:30;9.80;99.90
41928;DHT22;27616;51.420;6.788;2022-12-26T06:42:56;9.90;99.90
41928;DHT22;27616;51.420;6.788;2022-12-26T06:45:21;9.70;99.90
41928;DHT22;27616;51.420;6.788;2022-12-26T06:47:47;9.80;99.90
41928;DHT22;27616;51.420;6.788;2022-12-26T06:50:13;9.70;99.90
41928;DHT22;27616;51.420;6.788;2022-12-26T06:52:38;9.70;99.90
41928;DHT22;27616;51.420;6.788;2022-12-26T06:55:04;9.60;99.90
41928;DHT22;27616;51.420;6.788;2022-12-26T06:57:29;9.60;99.90
41928;DHT22;27616;51.420;6.788;2022-12-26T06:59:55;9.70;99.90
41928;DHT22;27616;51.420;6.788;2022-12-26T07:02:21;9.80;99.90
41928;DHT22;27616;51.420;6.788;2022-12-26T07:04:46;9.80;99.90
41928;DHT22;27616;51.420;6.788;2022-12-26T07:07:12;9.80;99.90
41928;DHT22;27616;51.420;6.788;2022-12-26T07:09:38;9.80;99.90
41928;DHT22;27616;51.420;6.788;2022-12-26T07:12:03;9.90;99.90
41928;DHT22;27616;51.420;6.788;2022-12-26T07:14:29;9.90;99.90
41928;DHT22;27616;51.420;6.788;2022-12-26T07:16:55;9.90;99.90
41928;DHT22;27616;51.420;6.788;2022-12-26T07:19:20;9.90;99.90
41928;DHT22;27616;51.420;6.788;2022-12-26T07:21:46;10.00;99.90
41928;DHT22;27616;51.420;6.788;2022-12-26T07:24:13;9.90;99.90
41928;DHT22;27616;51.420;6.788;2022-12-26T07:26:38;9.90;99.90
41928;DHT22;27616;51.420;6.788;2022-12-26T07:29:04;9.90;99.90
41928;DHT22;27616;51.420;6.788;2022-12-26T07:31:30;9.90;99.90
41928;DHT22;27616;51.420;6.788;2022-12-26T07:33:55;9.90;99.90
41928;DHT22;27616;51.420;6.788;2022-12-26T07:36:21;9.90;99.90
41928;DHT22;27616;51.420;6.788;2022-12-26T07:38:47;9.90;99.90
41928;DHT22;27616;51.420;6.788;2022-12-26T07:41:13;9.90;99.90
41928;DHT22;27616;51.420;6.788;2022-12-26T07:43:58;9.90;99.90
41928;DHT22;27616;51.420;6.788;2022-12-26T07:46:24;10.00;99.90
41928;DHT22;27616;51.420;6.788;2022-12-26T07:48:50;10.10;99.90
41928;DHT22;27616;51.420;6.788;2022-12-26T07:51:15;10.10;99.90
41928;DHT22;27616;51.420;6.788;2022-12-26T07:53:41;10.10;99.90
41928;DHT22;27616;51.420;6.788;2022-12-26T07:56:07;10.10;99.90
41928;DHT22;27616;51.420;6.788;2022-12-26T07:58:33;10.20;99.90
41928;DHT22;27616;51.420;6.788;2022-12-26T08:01:02;10.30;99.90
41928;DHT22;27616;51.420;6.788;2022-12-26T08:03:27;10.30;99.90
41928;DHT22;27616;51.420;6.788;2022-12-26T08:05:53;10.30;99.90
41928;DHT22;27616;51.420;6.788;2022-12-26T08:08:19;10.30;99.90
41928;DHT22;27616;51.420;6.788;2022-12-26T08:10:44;10.30;99.90
41928;DHT22;27616;51.420;6.788;2022-12-26T08:13:10;10.30;99.90
41928;DHT22;27616;51.420;6.788;2022-12-26T08:15:39;10.30;99.90
41928;DHT22;27616;51.420;6.788;2022-12-26T08:18:05;10.30;99.90
41928;DHT22;27616;51.420;6.788;2022-12-26T08:20:31;10.30;99.90
41928;DHT22;27616;51.420;6.788;2022-12-26T08:22:57;10.30;99.90
41928;DHT22;27616;51.420;6.788;2022-12-26T08:25:23;10.30;99.90
41928;DHT22;27616;51.420;6.788;2022-12-26T08:27:48;10.40;99.90
41928;DHT22;27616;51.420;6.788;2022-12-26T08:30:14;10.40;99.90
41928;DHT22;27616;51.420;6.788;2022-12-26T08:32:39;10.40;99.90
41928;DHT22;27616;51.420;6.788;2022-12-26T08:35:05;10.40;99.90
41928;DHT22;27616;51.420;6.788;2022-12-26T08:37:31;10.50;99.90
41928;DHT22;27616;51.420;6.788;2022-12-26T08:39:56;10.40;99.90
41928;DHT22;27616;51.420;6.788;2022-12-26T08:42:22;10.40;99.90
41928;DHT22;27616;51.420;6.788;2022-12-26T08:47:40;10.30;99.90
41928;DHT22;27616;51.420;6.788;2022-12-26T08:50:05;10.40;99.90
41928;DHT22;27616;51.420;6.788;2022-12-26T08:52:31;10.40;99.90
41928;DHT22;27616;51.420;6.788;2022-12-26T08:54:56;10.40;99.90
41928;DHT22;27616;51.420;6.788;2022-12-26T08:57:22;10.40;99.90
41928;DHT22;27616;51.420;6.788;2022-12-26T08:59:48;10.40;99.90
41928;DHT22;27616;51.420;6.788;2022-12-26T09:02:13;10.50;99.90
41928;DHT22;27616;51.420;6.788;2022-12-26T09:04:39;10.40;99.90
41928;DHT22;27616;51.420;6.788;2022-12-26T09:07:06;10.50;99.90
41928;DHT22;27616;51.420;6.788;2022-12-26T09:09:31;10.50;99.90
41928;DHT22;27616;51.420;6.788;2022-12-26T09:11:57;10.50;99.90
41928;DHT22;27616;51.420;6.788;2022-12-26T09:14:22;10.60;99.90
41928;DHT22;27616;51.420;6.788;2022-12-26T09:16:48;10.50;99.90
41928;DHT22;27616;51.420;6.788;2022-12-26T09:19:14;10.50;99.90
41928;DHT22;27616;51.420;6.788;2022-12-26T09:21:43;10.50;99.90
41928;DHT22;27616;51.420;6.788;2022-12-26T09:24:10;10.50;99.90
41928;DHT22;27616;51.420;6.788;2022-12-26T09:26:36;10.40;99.90
41928;DHT22;27616;51.420;6.788;2022-12-26T09:29:02;10.50;99.90
41928;DHT22;27616;51.420;6.788;2022-12-26T09:31:29;10.40;99.90
41928;DHT22;27616;51.420;6.788;2022-12-26T09:33:54;10.50;99.90
41928;DHT22;27616;51.420;6.788;2022-12-26T09:36:22;10.40;99.90
41928;DHT22;27616;51.420;6.788;2022-12-26T09:38:48;10.40;99.90
41928;DHT22;27616;51.420;6.788;2022-12-26T09:49:11;10.80;99.90
41928;DHT22;27616;51.420;6.788;2022-12-26T09:51:39;10.80;99.90
41928;DHT22;27616;51.420;6.788;2022-12-26T09:54:05;10.90;99.90
41928;DHT22;27616;51.420;6.788;2022-12-26T09:56:32;10.90;99.90
41928;DHT22;27616;51.420;6.788;2022-12-26T09:59:01;11.00;99.90
41928;DHT22;27616;51.420;6.788;2022-12-26T10:01:33;11.00;99.90
41928;DHT22;27616;51.420;6.788;2022-12-26T10:03:59;11.00;99.90
41928;DHT22;27616;51.420;6.788;2022-12-26T10:06:26;11.10;99.90
41928;DHT22;27616;51.420;6.788;2022-12-26T10:08:56;11.30;99.90
41928;DHT22;27616;51.420;6.788;2022-12-26T10:14:15;11.50;99.90
41928;DHT22;27616;51.420;6.788;2022-12-26T10:24:26;11.40;99.90
41928;DHT22;27616;51.420;6.788;2022-12-26T10:26:55;11.30;99.90
41928;DHT22;27616;51.420;6.788;2022-12-26T10:29:29;11.30;99.90
41928;DHT22;27616;51.420;6.788;2022-12-26T10:32:00;11.40;99.90
41928;DHT22;27616;51.420;6.788;2022-12-26T10:34:32;11.50;99.90
41928;DHT22;27616;51.420;6.788;2022-12-26T10:37:00;11.50;99.90
41928;DHT22;27616;51.420;6.788;2022-12-26T10:39:35;11.60;99.90
41928;DHT22;27616;51.420;6.788;2022-12-26T10:42:09;11.70;99.90
41928;DHT22;27616;51.420;6.788;2022-12-26T10:44:36;11.70;99.90
41928;DHT22;27616;51.420;6.788;2022-12-26T10:47:12;11.70;99.90
41928;DHT22;27616;51.420;6.788;2022-12-26T10:49:39;11.70;99.90
41928;DHT22;27616;51.420;6.788;2022-12-26T10:52:07;11.50;99.90
41928;DHT22;27616;51.420;6.788;2022-12-26T10:54:34;11.40;99.90
41928;DHT22;27616;51.420;6.788;2022-12-26T10:57:00;11.40;99.90
41928;DHT22;27616;51.420;6.788;2022-12-26T10:59:34;11.40;99.90
41928;DHT22;27616;51.420;6.788;2022-12-26T11:05:01;11.50;99.90
41928;DHT22;27616;51.420;6.788;2022-12-26T11:07:28;11.60;99.90
41928;DHT22;27616;51.420;6.788;2022-12-26T11:09:54;11.60;99.90
41928;DHT22;27616;51.420;6.788;2022-12-26T11:12:39;11.60;99.90
41928;DHT22;27616;51.420;6.788;2022-12-26T11:15:16;11.60;99.90
41928;DHT22;27616;51.420;6.788;2022-12-26T11:17:43;11.60;99.90
41928;DHT22;27616;51.420;6.788;2022-12-26T11:22:44;11.60;99.90
41928;DHT22;27616;51.420;6.788;2022-12-26T11:25:17;11.60;99.90
41928;DHT22;27616;51.420;6.788;2022-12-26T11:27:50;11.60;99.90
41928;DHT22;27616;51.420;6.788;2022-12-26T11:30:21;11.50;99.90
41928;DHT22;27616;51.420;6.788;2022-12-26T11:32:48;11.50;99.90
41928;DHT22;27616;51.420;6.788;2022-12-26T11:35:23;11.50;99.90
41928;DHT22;27616;51.420;6.788;2022-12-26T11:37:54;11.50;99.90
41928;DHT22;27616;51.420;6.788;2022-12-26T11:40:22;11.40;99.90
41928;DHT22;27616;51.420;6.788;2022-12-26T11:42:53;11.30;99.90
41928;DHT22;27616;51.420;6.788;2022-12-26T11:45:23;11.40;99.90
41928;DHT22;27616;51.420;6.788;2022-12-26T11:47:50;11.50;99.90
41928;DHT22;27616;51.420;6.788;2022-12-26T11:50:18;11.50;99.90
41928;DHT22;27616;51.420;6.788;2022-12-26T12:00:24;11.70;99.90
41928;DHT22;27616;51.420;6.788;2022-12-26T12:02:50;11.70;99.90
41928;DHT22;27616;51.420;6.788;2022-12-26T12:15:37;12.00;99.90
41928;DHT22;27616;51.420;6.788;2022-12-26T12:20:40;12.00;99.90
41928;DHT22;27616;51.420;6.788;2022-12-26T12:28:41;11.70;99.90
41928;DHT22;27616;51.420;6.788;2022-12-26T12:31:17;11.60;99.90
41928;DHT22;27616;51.420;6.788;2022-12-26T12:36:28;11.30;99.90
41928;DHT22;27616;51.420;6.788;2022-12-26T12:39:05;11.00;99.90
41928;DHT22;27616;51.420;6.788;2022-12-26T12:49:43;10.10;99.90
41928;DHT22;27616;51.420;6.788;2022-12-26T12:51:54;9.80;99.90
41928;DHT22;27616;51.420;6.788;2022-12-26T12:54:29;9.80;99.90
41928;DHT22;27616;51.420;6.788;2022-12-26T13:02:26;9.60;99.90
41928;DHT22;27616;51.420;6.788;2022-12-26T13:04:58;9.60;99.90
41928;DHT22;27616;51.420;6.788;2022-12-26T13:07:36;9.50;99.90
41928;DHT22;27616;51.420;6.788;2022-12-26T13:10:05;9.40;99.90
41928;DHT22;27616;51.420;6.788;2022-12-26T13:12:37;9.30;99.90
41928;DHT22;27616;51.420;6.788;2022-12-26T13:15:05;9.30;99.90
41928;DHT22;27616;51.420;6.788;2022-12-26T13:17:36;9.40;99.90
41928;DHT22;27616;51.420;6.788;2022-12-26T13:20:04;9.30;99.90
41928;DHT22;27616;51.420;6.788;2022-12-26T13:22:34;9.20;99.90
41928;DHT22;27616;51.420;6.788;2022-12-26T13:25:21;9.20;99.90
41928;DHT22;27616;51.420;6.788;2022-12-26T13:27:47;9.20;99.90
41928;DHT22;27616;51.420;6.788;2022-12-26T13:30:15;9.20;99.90
41928;DHT22;27616;51.420;6.788;2022-12-26T13:32:42;9.20;99.90
41928;DHT22;27616;51.420;6.788;2022-12-26T13:35:45;9.20;99.90
41928;DHT22;27616;51.420;6.788;2022-12-26T13:37:55;9.20;99.90
41928;DHT22;27616;51.420;6.788;2022-12-26T13:40:23;9.30;99.90
41928;DHT22;27616;51.420;6.788;2022-12-26T13:42:59;9.30;99.90
41928;DHT22;27616;51.420;6.788;2022-12-26T13:45:49;9.30;99.90
41928;DHT22;27616;51.420;6.788;2022-12-26T13:53:26;9.20;99.90
41928;DHT22;27616;51.420;6.788;2022-12-26T14:00:47;9.10;99.90
41928;DHT22;27616;51.420;6.788;2022-12-26T14:05:45;8.70;99.90
41928;DHT22;27616;51.420;6.788;2022-12-26T14:08:33;8.70;99.90
41928;DHT22;27616;51.420;6.788;2022-12-26T14:11:05;8.60;99.90
41928;DHT22;27616;51.420;6.788;2022-12-26T14:16:17;8.50;99.90
41928;DHT22;27616;51.420;6.788;2022-12-26T14:44:51;8.00;99.90
41928;DHT22;27616;51.420;6.788;2022-12-26T14:52:45;7.90;99.90
41928;DHT22;27616;51.420;6.788;2022-12-26T15:00:51;7.80;99.90
41928;DHT22;27616;51.420;6.788;2022-12-26T15:03:26;7.90;99.90
41928;DHT22;27616;51.420;6.788;2022-12-26T15:05:59;7.90;99.90
41928;DHT22;27616;51.420;6.788;2022-12-26T15:32:30;7.50;99.90
41928;DHT22;27616;51.420;6.788;2022-12-26T15:39:52;7.30;99.90
41928;DHT22;27616;51.420;6.788;2022-12-26T15:52:46;7.20;99.90
41928;DHT22;27616;51.420;6.788;2022-12-26T16:00:53;7.20;99.90
41928;DHT22;27616;51.420;6.788;2022-12-26T16:08:51;7.00;99.90
41928;DHT22;27616;51.420;6.788;2022-12-26T16:11:20;6.80;99.90
41928;DHT22;27616;51.420;6.788;2022-12-26T16:13:47;6.60;99.90
41928;DHT22;27616;51.420;6.788;2022-12-26T16:16:21;6.50;99.90
41928;DHT22;27616;51.420;6.788;2022-12-26T16:18:47;6.50;99.90
41928;DHT22;27616;51.420;6.788;2022-12-26T16:21:13;6.40;99.90
41928;DHT22;27616;51.420;6.788;2022-12-26T16:23:57;6.30;99.90
41928;DHT22;27616;51.420;6.788;2022-12-26T16:26:26;6.30;99.90
41928;DHT22;27616;51.420;6.788;2022-12-26T16:28:53;6.20;99.90
41928;DHT22;27616;51.420;6.788;2022-12-26T16:31:20;6.20;99.90
41928;DHT22;27616;51.420;6.788;2022-12-26T16:33:48;6.10;99.90
41928;DHT22;27616;51.420;6.788;2022-12-26T16:36:16;6.10;99.90
41928;DHT22;27616;51.420;6.788;2022-12-26T16:38:43;6.00;99.90
41928;DHT22;27616;51.420;6.788;2022-12-26T16:43:43;6.00;99.90
41928;DHT22;27616;51.420;6.788;2022-12-26T16:46:10;5.90;99.90
41928;DHT22;27616;51.420;6.788;2022-12-26T16:48:35;6.00;99.90
41928;DHT22;27616;51.420;6.788;2022-12-26T16:51:02;5.90;99.90
41928;DHT22;27616;51.420;6.788;2022-12-26T16:58:43;5.80;99.90
41928;DHT22;27616;51.420;6.788;2022-12-26T17:01:11;5.80;99.90
41928;DHT22;27616;51.420;6.788;2022-12-26T17:06:45;5.60;99.90
41928;DHT22;27616;51.420;6.788;2022-12-26T17:08:52;5.50;99.90
41928;DHT22;27616;51.420;6.788;2022-12-26T17:11:24;5.50;99.90
41928;DHT22;27616;51.420;6.788;2022-12-26T17:13:51;5.50;99.90
41928;DHT22;27616;51.420;6.788;2022-12-26T17:16:20;5.30;99.90
41928;DHT22;27616;51.420;6.788;2022-12-26T17:18:47;5.30;99.90
41928;DHT22;27616;51.420;6.788;2022-12-26T17:23:42;5.30;99.90
41928;DHT22;27616;51.420;6.788;2022-12-26T17:26:18;5.30;99.90
41928;DHT22;27616;51.420;6.788;2022-12-26T17:28:44;5.20;99.90
41928;DHT22;27616;51.420;6.788;2022-12-26T17:31:11;5.30;99.90
41928;DHT22;27616;51.420;6.788;2022-12-26T17:33:37;5.30;99.90
41928;DHT22;27616;51.420;6.788;2022-12-26T17:36:04;5.40;99.90
41928;DHT22;27616;51.420;6.788;2022-12-26T17:38:31;5.50;99.90
41928;DHT22;27616;51.420;6.788;2022-12-26T17:41:01;5.50;99.90
41928;DHT22;27616;51.420;6.788;2022-12-26T17:43:34;5.50;99.90
41928;DHT22;27616;51.420;6.788;2022-12-26T17:46:01;5.50;99.90
41928;DHT22;27616;51.420;6.788;2022-12-26T17:48:26;5.50;99.90
41928;DHT22;27616;51.420;6.788;2022-12-26T17:50:54;5.50;99.90
41928;DHT22;27616;51.420;6.788;2022-12-26T17:53:30;5.40;99.90
41928;DHT22;27616;51.420;6.788;2022-12-26T17:55:57;5.40;99.90
41928;DHT22;27616;51.420;6.788;2022-12-26T17:58:23;5.30;99.90
41928;DHT22;27616;51.420;6.788;2022-12-26T18:00:49;5.20;99.90
41928;DHT22;27616;51.420;6.788;2022-12-26T18:03:15;5.20;99.90
41928;DHT22;27616;51.420;6.788;2022-12-26T18:05:41;5.10;99.90
41928;DHT22;27616;51.420;6.788;2022-12-26T18:08:09;5.10;99.90
41928;DHT22;27616;51.420;6.788;2022-12-26T18:10:37;5.10;99.90
41928;DHT22;27616;51.420;6.788;2022-12-26T18:13:03;5.00;99.90
41928;DHT22;27616;51.420;6.788;2022-12-26T18:15:29;5.00;99.90
41928;DHT22;27616;51.420;6.788;2022-12-26T18:17:55;4.90;99.90
41928;DHT22;27616;51.420;6.788;2022-12-26T18:20:25;4.90;99.90
41928;DHT22;27616;51.420;6.788;2022-12-26T18:22:52;4.80;99.90
41928;DHT22;27616;51.420;6.788;2022-12-26T18:25:19;4.80;99.90
41928;DHT22;27616;51.420;6.788;2022-12-26T18:27:45;4.70;99.90
41928;DHT22;27616;51.420;6.788;2022-12-26T18:30:13;4.70;99.90
41928;DHT22;27616;51.420;6.788;2022-12-26T18:32:39;4.70;99.90
41928;DHT22;27616;51.420;6.788;2022-12-26T18:35:05;4.70;99.90
41928;DHT22;27616;51.420;6.788;2022-12-26T18:37:31;4.60;99.90
41928;DHT22;27616;51.420;6.788;2022-12-26T18:39:57;4.60;99.90
41928;DHT22;27616;51.420;6.788;2022-12-26T18:42:22;4.50;99.90
41928;DHT22;27616;51.420;6.788;2022-12-26T18:44:49;4.50;99.90
41928;DHT22;27616;51.420;6.788;2022-12-26T18:47:15;4.50;99.90
41928;DHT22;27616;51.420;6.788;2022-12-26T18:49:42;4.50;99.90
41928;DHT22;27616;51.420;6.788;2022-12-26T18:52:08;4.50;99.90
41928;DHT22;27616;51.420;6.788;2022-12-26T18:54:34;4.40;99.90
41928;DHT22;27616;51.420;6.788;2022-12-26T18:57:01;4.40;99.90
41928;DHT22;27616;51.420;6.788;2022-12-26T18:59:26;4.30;99.90
41928;DHT22;27616;51.420;6.788;2022-12-26T19:01:52;4.30;99.90
41928;DHT22;27616;51.420;6.788;2022-12-26T19:04:18;4.30;99.90
41928;DHT22;27616;51.420;6.788;2022-12-26T19:06:43;4.30;99.90
41928;DHT22;27616;51.420;6.788;2022-12-26T19:09:12;4.30;99.90
41928;DHT22;27616;51.420;6.788;2022-12-26T19:11:38;4.30;99.90
41928;DHT22;27616;51.420;6.788;2022-12-26T19:14:05;4.20;99.90
41928;DHT22;27616;51.420;6.788;2022-12-26T19:16:36;4.20;99.90
41928;DHT22;27616;51.420;6.788;2022-12-26T19:19:02;4.20;99.90
41928;DHT22;27616;51.420;6.788;2022-12-26T19:21:28;4.20;99.90
41928;DHT22;27616;51.420;6.788;2022-12-26T19:23:54;4.20;99.90
41928;DHT22;27616;51.420;6.788;2022-12-26T19:26:19;4.20;99.90
41928;DHT22;27616;51.420;6.788;2022-12-26T19:28:49;4.20;99.90
41928;DHT22;27616;51.420;6.788;2022-12-26T19:31:14;4.10;99.90
41928;DHT22;27616;51.420;6.788;2022-12-26T19:33:40;4.20;99.90
41928;DHT22;27616;51.420;6.788;2022-12-26T19:36:07;4.10;99.90
41928;DHT22;27616;51.420;6.788;2022-12-26T19:38:32;4.10;99.90
41928;DHT22;27616;51.420;6.788;2022-12-26T19:41:02;4.10;99.90
41928;DHT22;27616;51.420;6.788;2022-12-26T19:43:28;4.10;99.90
41928;DHT22;27616;51.420;6.788;2022-12-26T19:45:57;4.10;99.90
41928;DHT22;27616;51.420;6.788;2022-12-26T19:48:23;4.10;99.90
41928;DHT22;27616;51.420;6.788;2022-12-26T19:50:48;4.10;99.90
41928;DHT22;27616;51.420;6.788;2022-12-26T19:53:14;4.10;99.90
41928;DHT22;27616;51.420;6.788;2022-12-26T19:55:39;4.10;99.90